Time;durP1;ratioP1;P1;durP2;ratioP2;P2;SDS_P1;SDS_P2;PMS_P1;PMS_P2;Temp;Humidity;BMP_temperature;BMP_pressure;BME280_temperature;BME280_humidity;BME280_pressure;Samples;Min_cycle;Max_cycle;Signal;HPM_P1;HPM_P2
2023/08/13 00:02:11;;;;;;;2.70;2.00;;;;;;;17.67;100.00;100690.97;4995857;28;20200;-84
2023/08/13 00:04:37;;;;;;;0.87;0.87;;;;;;;17.67;100.00;100683.47;4994653;28;20208;-82
2023/08/13 00:07:02;;;;;;;0.67;0.67;;;;;;;17.65;100.00;100684.97;4994607;28;20699;-83
2023/08/13 00:09:28;;;;;;;1.00;1.00;;;;;;;17.64;100.00;100680.59;4995813;28;20267;-84
2023/08/13 00:11:53;;;;;;;0.87;0.60;;;;;;;17.67;100.00;100683.47;4994703;28;20719;-82
2023/08/13 00:14:19;;;;;;;0.93;0.93;;;;;;;17.62;100.00;100667.13;4994413;28;20217;-84
2023/08/13 00:16:45;;;;;;;1.17;0.53;;;;;;;17.57;100.00;100669.38;4994550;28;20335;-83
2023/08/13 00:19:10;;;;;;;0.80;0.80;;;;;;;17.57;100.00;100666.59;4994113;28;20192;-84
2023/08/13 00:21:35;;;;;;;1.17;1.17;;;;;;;17.57;100.00;100669.38;4995265;28;20177;-82
2023/08/13 00:24:01;;;;;;;8.70;1.30;;;;;;;17.57;100.00;100678.47;4993367;28;20213;-82
2023/08/13 00:26:26;;;;;;;2.60;0.70;;;;;;;17.57;100.00;100686.75;4992735;28;20189;-82
2023/08/13 00:28:52;;;;;;;0.93;0.93;;;;;;;17.62;100.00;100683.72;4995651;28;20412;-82
2023/08/13 00:31:17;;;;;;;0.77;0.77;;;;;;;17.62;100.00;100677.38;4994661;28;20183;-83
2023/08/13 00:33:42;;;;;;;0.80;0.80;;;;;;;17.61;100.00;100684.88;4991910;28;20223;-82
2023/08/13 00:36:08;;;;;;;1.20;1.10;;;;;;;17.64;100.00;100686.13;4991298;28;20235;-82
2023/08/13 00:38:33;;;;;;;1.07;0.57;;;;;;;17.58;100.00;100680.06;4993066;28;20188;-82
2023/08/13 00:40:58;;;;;;;0.80;0.80;;;;;;;17.58;100.00;100687.56;4994235;28;20231;-82
2023/08/13 00:43:24;;;;;;;3.43;1.13;;;;;;;17.50;100.00;100675.47;4994502;28;20290;-82
2023/08/13 00:45:49;;;;;;;1.43;1.17;;;;;;;17.46;100.00;100691.97;4993925;28;20197;-84
2023/08/13 00:48:15;;;;;;;0.80;0.80;;;;;;;17.42;100.00;100696.59;4992032;28;20243;-81
2023/08/13 00:50:44;;;;;;;1.33;1.13;;;;;;;17.43;100.00;100687.16;4992196;28;20181;-82
2023/08/13 00:53:10;;;;;;;1.23;1.13;;;;;;;17.45;100.00;100701.41;4991923;28;20560;-82
2023/08/13 00:55:36;;;;;;;1.07;1.07;;;;;;;17.45;100.00;100695.88;4991212;28;20209;-82
2023/08/13 00:58:02;;;;;;;1.50;1.40;;;;;;;17.34;100.00;100694.78;4991817;28;20192;-84
2023/08/13 01:00:27;;;;;;;1.07;0.93;;;;;;;17.33;100.00;100700.66;4991488;28;20268;-82
2023/08/13 01:02:53;;;;;;;0.83;0.80;;;;;;;17.29;100.00;100691.47;4991707;28;20193;-82
2023/08/13 01:05:22;;;;;;;0.93;0.93;;;;;;;17.25;100.00;100697.69;4991020;28;20208;-82
2023/08/13 01:07:59;;;;;;;1.07;1.07;;;;;;;17.25;100.00;100699.66;4991553;28;20308;-82
2023/08/13 01:10:33;;;;;;;0.67;0.67;;;;;;;17.23;100.00;100704.72;4990872;28;20200;-83
2023/08/13 01:13:10;;;;;;;1.57;1.47;;;;;;;17.31;100.00;100700.19;4990447;28;20242;-82
2023/08/13 01:15:40;;;;;;;1.37;1.23;;;;;;;17.21;100.00;100695.97;4990901;28;20219;-81
2023/08/13 01:18:07;;;;;;;0.70;0.70;;;;;;;17.29;100.00;100697.78;4991638;28;20181;-82
2023/08/13 01:20:35;;;;;;;3.90;1.43;;;;;;;17.31;100.00;100694.69;4991789;28;20181;-82
2023/08/13 01:23:01;;;;;;;2.03;1.60;;;;;;;17.24;100.00;100698.84;4990290;28;20520;-85
2023/08/13 01:25:27;;;;;;;1.10;1.00;;;;;;;17.23;100.00;100699.22;4989652;28;20734;-82
2023/08/13 01:27:55;;;;;;;0.60;0.60;;;;;;;17.23;100.00;100693.69;5006717;28;20628;-84
2023/08/13 01:30:31;;;;;;;3.07;1.50;;;;;;;17.29;100.00;100702.50;4991490;28;20251;-83
2023/08/13 01:33:02;;;;;;;1.77;1.63;;;;;;;17.28;100.00;100706.44;4990283;28;20184;-82
2023/08/13 01:35:32;;;;;;;1.70;1.23;;;;;;;17.30;100.00;100706.88;4990799;28;20263;-82
2023/08/13 01:38:02;;;;;;;2.77;1.93;;;;;;;17.25;100.00;100696.91;4991396;28;20192;-82
2023/08/13 01:40:28;;;;;;;1.07;1.00;;;;;;;17.23;100.00;100694.47;4991043;28;20587;-83
2023/08/13 01:42:54;;;;;;;0.80;0.80;;;;;;;17.21;100.00;100694.03;4991470;28;20185;-82
2023/08/13 01:45:20;;;;;;;0.33;0.33;;;;;;;17.22;100.00;100697.59;4989215;28;20208;-82
2023/08/13 01:47:46;;;;;;;1.40;0.73;;;;;;;17.18;100.00;100693.91;4991450;28;20195;-82
2023/08/13 01:50:12;;;;;;;0.97;0.90;;;;;;;17.12;100.00;100696.13;4991482;28;20181;-82
2023/08/13 01:52:37;;;;;;;0.60;0.60;;;;;;;17.07;100.00;100698.31;4991233;28;20719;-82
2023/08/13 01:55:03;;;;;;;1.60;1.00;;;;;;;17.11;100.00;100697.28;4989346;28;20209;-82
2023/08/13 01:57:28;;;;;;;0.50;0.50;;;;;;;17.13;100.00;100696.94;4991515;28;20181;-82
2023/08/13 01:59:54;;;;;;;2.13;1.63;;;;;;;17.16;100.00;100697.03;4991396;28;20189;-84
2023/08/13 02:02:19;;;;;;;1.10;0.97;;;;;;;17.30;100.00;100693.06;4990125;28;20219;-82
2023/08/13 02:04:44;;;;;;;0.63;0.63;;;;;;;17.14;100.00;100690.25;4989698;28;20685;-82
2023/08/13 02:07:10;;;;;;;0.60;0.60;;;;;;;17.12;100.00;100687.84;4990457;28;20193;-82
2023/08/13 02:09:35;;;;;;;1.60;1.50;;;;;;;17.10;100.00;100690.16;4991294;28;20193;-82
2023/08/13 02:12:01;;;;;;;0.30;0.30;;;;;;;17.12;100.00;100701.66;4991784;28;20192;-83
2023/08/13 02:14:27;;;;;;;0.93;0.93;;;;;;;17.16;100.00;100699.78;4994392;28;20213;-81
2023/08/13 02:16:53;;;;;;;0.30;0.30;;;;;;;17.18;100.00;100694.72;4996028;28;20195;-82
2023/08/13 02:19:18;;;;;;;0.50;0.50;;;;;;;17.17;100.00;100693.09;4994232;28;20193;-82
2023/08/13 02:21:44;;;;;;;0.50;0.50;;;;;;;17.20;100.00;100706.22;4997021;28;20185;-82
2023/08/13 02:24:09;;;;;;;0.30;0.30;;;;;;;17.22;100.00;100705.88;4994761;28;20208;-84
2023/08/13 02:26:34;;;;;;;0.80;0.80;;;;;;;17.17;100.00;100701.38;4994688;28;20189;-82
2023/08/13 02:28:59;;;;;;;0.77;0.77;;;;;;;17.15;100.00;100700.13;4995541;28;20189;-81
2023/08/13 02:31:25;;;;;;;0.10;0.10;;;;;;;17.15;100.00;100695.41;4994067;28;20660;-82
2023/08/13 02:33:50;;;;;;;0.10;0.10;;;;;;;17.15;100.00;100697.38;4995294;28;20201;-82
2023/08/13 02:36:15;;;;;;;0.17;0.17;;;;;;;17.11;100.00;100694.50;4994870;28;20221;-83
2023/08/13 02:38:41;;;;;;;0.83;0.83;;;;;;;17.07;100.00;100698.31;4994034;28;20661;-82
2023/08/13 02:41:06;;;;;;;0.63;0.63;;;;;;;17.02;100.00;100696.59;4993864;28;20195;-82
2023/08/13 02:43:47;;;;;;;1.20;1.20;;;;;;;17.04;100.00;100704.53;4993939;28;20191;-83
2023/08/13 02:46:13;;;;;;;0.63;0.63;;;;;;;16.97;100.00;100707.88;4993361;28;20196;-82
2023/08/13 02:48:38;;;;;;;1.23;1.17;;;;;;;17.07;100.00;100707.41;5010526;28;20228;-84
2023/08/13 02:51:03;;;;;;;2.37;0.97;;;;;;;17.02;100.00;100704.88;4994975;28;20618;-82
2023/08/13 02:53:28;;;;;;;0.83;0.63;;;;;;;16.99;100.00;100702.03;4993633;28;20193;-82
2023/08/13 02:55:54;;;;;;;1.20;0.80;;;;;;;16.98;100.00;100701.22;4994291;28;20231;-82
2023/08/13 02:58:19;;;;;;;0.83;0.83;;;;;;;16.96;100.00;100706.28;4994953;28;20261;-82
2023/08/13 03:00:44;;;;;;;0.23;0.23;;;;;;;17.00;100.00;100700.88;4993781;28;20189;-83
2023/08/13 03:03:10;;;;;;;1.00;1.00;;;;;;;17.01;100.00;100703.28;4993652;28;20187;-82
2023/08/13 03:05:35;;;;;;;0.50;0.50;;;;;;;17.06;100.00;100697.50;4992796;28;20209;-82
2023/08/13 03:08:00;;;;;;;0.50;0.50;;;;;;;17.04;100.00;100694.28;4994601;28;20782;-84
2023/08/13 03:10:26;;;;;;;3.60;2.17;;;;;;;17.01;100.00;100695.00;4995676;28;20184;-82
2023/08/13 03:12:51;;;;;;;0.60;0.30;;;;;;;17.03;100.00;100694.63;4995242;28;20628;-82
2023/08/13 03:15:16;;;;;;;0.63;0.63;;;;;;;16.98;100.00;100694.88;4995386;28;20220;-82
2023/08/13 03:17:42;;;;;;;9.77;0.93;;;;;;;17.01;100.00;100688.66;4993571;28;20235;-82
2023/08/13 03:20:07;;;;;;;1.50;1.40;;;;;;;17.05;100.00;100695.09;4994140;28;20196;-84
2023/08/13 03:22:33;;;;;;;2.63;0.83;;;;;;;17.04;100.00;100691.53;4994991;28;20271;-82
2023/08/13 03:24:58;;;;;;;0.17;0.17;;;;;;;17.09;100.00;100693.25;4992982;28;20205;-82
2023/08/13 03:27:23;;;;;;;0.33;0.33;;;;;;;17.10;100.00;100700.38;4994035;28;20587;-81
2023/08/13 03:29:49;;;;;;;1.30;1.20;;;;;;;17.05;100.00;100701.41;5010081;28;20181;-82
2023/08/13 03:32:14;;;;;;;7.43;0.67;;;;;;;17.09;100.00;100698.78;5009471;28;20182;-83
2023/08/13 03:34:40;;;;;;;0.30;0.30;;;;;;;17.13;100.00;100689.44;4994247;28;20201;-85
2023/08/13 03:37:06;;;;;;;0.67;0.67;;;;;;;17.11;100.00;100696.47;5008801;28;20189;-82
2023/08/13 03:39:31;;;;;;;9.67;1.63;;;;;;;17.14;100.00;100698.53;4993063;28;20188;-82
2023/08/13 03:41:56;;;;;;;0.10;0.10;;;;;;;17.10;100.00;100692.91;4992921;28;20181;-82
2023/08/13 03:44:22;;;;;;;0.77;0.77;;;;;;;17.11;100.00;100691.75;4993509;28;20681;-84
2023/08/13 03:46:47;;;;;;;0.80;0.80;;;;;;;17.07;100.00;100696.38;4992891;28;20609;-82
2023/08/13 03:49:12;;;;;;;1.90;1.80;;;;;;;17.01;100.00;100706.03;4994335;28;20646;-82
2023/08/13 03:51:38;;;;;;;5.80;0.70;;;;;;;17.09;100.00;100707.88;4993822;28;20608;-82
2023/08/13 03:54:03;;;;;;;3.00;2.10;;;;;;;17.06;100.00;100710.50;4992089;28;20236;-82
2023/08/13 03:56:29;;;;;;;0.43;0.43;;;;;;;17.11;100.00;100704.75;4993986;28;20212;-82
2023/08/13 03:58:54;;;;;;;0.87;0.87;;;;;;;17.13;100.00;100700.50;4992071;28;20625;-82
2023/08/13 04:01:19;;;;;;;0.73;0.73;;;;;;;17.10;100.00;100692.09;4992871;28;20185;-82
2023/08/13 04:03:44;;;;;;;0.43;0.43;;;;;;;17.18;100.00;100708.53;4991511;28;20586;-84
2023/08/13 04:06:10;;;;;;;2.57;1.23;;;;;;;17.20;100.00;100700.69;4992020;28;20169;-82
2023/08/13 04:08:35;;;;;;;0.67;0.67;;;;;;;17.22;100.00;100716.94;4992645;28;20209;-82
2023/08/13 04:11:01;;;;;;;1.33;1.23;;;;;;;17.30;100.00;100709.66;4992701;28;20185;-81
2023/08/13 04:13:27;;;;;;;15.23;2.33;;;;;;;17.21;100.00;100707.84;4993037;28;20267;-82
2023/08/13 04:15:52;;;;;;;0.70;0.70;;;;;;;17.20;100.00;100700.69;4992431;28;20630;-82
2023/08/13 04:18:17;;;;;;;3.73;2.33;;;;;;;17.20;100.00;100695.16;4992869;28;20182;-82
2023/08/13 04:20:43;;;;;;;1.13;1.13;;;;;;;17.20;100.00;100703.44;4991462;28;20215;-82
2023/08/13 04:23:08;;;;;;;1.07;1.07;;;;;;;17.22;100.00;100703.13;4991573;28;20196;-82
2023/08/13 04:25:34;;;;;;;1.03;1.00;;;;;;;17.25;100.00;100710.69;4990714;28;20576;-82
2023/08/13 04:27:59;;;;;;;1.40;1.30;;;;;;;17.33;100.00;100714.47;4992750;28;20181;-82
2023/08/13 04:30:24;;;;;;;1.73;1.63;;;;;;;17.36;100.00;100702.72;4992586;28;20228;-82
2023/08/13 04:32:54;;;;;;;1.60;1.50;;;;;;;17.44;100.00;100701.75;4992659;28;20177;-83
2023/08/13 04:35:23;;;;;;;15.33;1.33;;;;;;;17.37;100.00;100699.63;4991408;28;20207;-84
2023/08/13 04:37:49;;;;;;;0.77;0.77;;;;;;;17.28;100.00;100706.44;4995835;28;20182;-82
2023/08/13 04:40:15;;;;;;;2.07;1.33;;;;;;;17.24;100.00;100703.56;4991988;28;20724;-82
2023/08/13 04:42:41;;;;;;;0.50;0.50;;;;;;;17.28;100.00;100703.66;4993467;28;20216;-82
2023/08/13 04:45:07;;;;;;;0.93;0.93;;;;;;;17.28;100.00;100706.44;4992195;28;20280;-82
2023/08/13 04:47:32;;;;;;;1.23;0.73;;;;;;;17.30;100.00;100695.84;4993041;28;20231;-82
2023/08/13 04:49:58;;;;;;;2.03;1.93;;;;;;;17.18;100.00;100694.72;4993373;28;20177;-82
2023/08/13 04:52:23;;;;;;;1.63;1.53;;;;;;;17.17;100.00;100695.88;4994732;28;20207;-82
2023/08/13 04:54:49;;;;;;;2.47;0.80;;;;;;;17.17;100.00;100698.63;4992218;28;20209;-85
2023/08/13 04:57:14;;;;;;;0.47;0.47;;;;;;;17.15;100.00;100697.38;4993178;28;20177;-81
2023/08/13 04:59:39;;;;;;;3.93;1.13;;;;;;;17.13;100.00;100700.50;4992500;28;20188;-83
2023/08/13 05:02:05;;;;;;;0.93;0.90;;;;;;;17.12;100.00;100698.09;4994079;28;20711;-84
2023/08/13 05:04:30;;;;;;;1.23;1.13;;;;;;;17.15;100.00;100702.91;4992292;28;20193;-82
2023/08/13 05:06:56;;;;;;;0.50;0.50;;;;;;;17.19;100.00;100703.78;4992666;28;20536;-82
2023/08/13 05:09:21;;;;;;;1.63;0.93;;;;;;;17.10;100.00;100701.19;4993816;28;20244;-83
2023/08/13 05:11:47;;;;;;;0.57;0.57;;;;;;;17.10;100.00;100708.66;4993764;28;20196;-82
2023/08/13 05:14:12;;;;;;;0.40;0.40;;;;;;;17.11;100.00;100708.31;4991331;28;20205;-82
2023/08/13 05:16:37;;;;;;;4.83;1.77;;;;;;;17.11;100.00;100705.56;4991790;28;20207;-83
2023/08/13 05:19:03;;;;;;;6.73;1.67;;;;;;;17.08;100.00;100700.75;4993319;28;20264;-81
2023/08/13 05:21:28;;;;;;;1.23;1.23;;;;;;;17.09;100.00;100707.06;4993143;28;20243;-83
2023/08/13 05:23:54;;;;;;;1.20;1.10;;;;;;;17.11;100.00;100708.31;4991324;28;20208;-83
2023/08/13 05:26:19;;;;;;;0.47;0.47;;;;;;;17.13;100.00;100708.78;4991529;28;20224;-82
2023/08/13 05:28:45;;;;;;;0.90;0.80;;;;;;;17.13;100.00;100708.78;4990779;28;20185;-82
2023/08/13 05:31:10;;;;;;;1.23;0.50;;;;;;;17.18;100.00;100703.00;4991246;28;20181;-82
2023/08/13 05:33:35;;;;;;;1.73;1.63;;;;;;;17.22;100.00;100708.66;4990507;28;20207;-82
2023/08/13 05:36:02;;;;;;;0.50;0.40;;;;;;;17.31;100.00;100705.72;4990621;28;20208;-82
2023/08/13 05:38:27;;;;;;;1.37;1.27;;;;;;;17.24;100.00;100711.84;4992032;28;20177;-82
2023/08/13 05:40:53;;;;;;;0.97;0.97;;;;;;;17.32;100.00;100701.81;4992829;28;20264;-83
2023/08/13 05:43:18;;;;;;;0.53;0.53;;;;;;;17.36;100.00;100720.09;4991284;28;20184;-83
2023/08/13 05:45:43;;;;;;;0.40;0.40;;;;;;;17.40;100.00;100715.47;4990942;28;20303;-83
2023/08/13 05:48:09;;;;;;;0.13;0.13;;;;;;;17.33;100.00;100706.16;4990218;28;20181;-82
2023/08/13 05:50:34;;;;;;;0.93;0.93;;;;;;;17.33;100.00;100714.47;4995902;28;20185;-83
2023/08/13 05:53:00;;;;;;;0.67;0.67;;;;;;;17.37;100.00;100721.72;4994108;28;20479;-84
2023/08/13 05:55:25;;;;;;;1.10;1.10;;;;;;;17.42;100.00;100715.94;4994266;28;20216;-83
2023/08/13 05:57:50;;;;;;;1.67;1.57;;;;;;;17.50;100.00;100720.53;4993832;28;20188;-82
2023/08/13 06:00:17;;;;;;;0.77;0.77;;;;;;;17.59;100.00;100720.34;4995117;28;20208;-82
2023/08/13 06:02:42;;;;;;;0.33;0.33;;;;;;;17.67;100.00;100721.38;5002015;28;20237;-82
2023/08/13 06:05:08;;;;;;;0.90;0.90;;;;;;;17.78;100.00;100719.72;4992740;28;20196;-82
2023/08/13 06:07:34;;;;;;;0.53;0.53;;;;;;;17.91;100.00;100726.78;4994962;28;20209;-85
2023/08/13 06:10:01;;;;;;;0.40;0.40;;;;;;;18.00;100.00;100729.41;4993614;28;20199;-85
2023/08/13 06:12:26;;;;;;;7.67;0.33;;;;;;;18.06;100.00;100725.19;4993712;28;20672;-82
2023/08/13 06:14:51;;;;;;;0.33;0.30;;;;;;;18.14;100.00;100730.56;4994227;28;20209;-82
2023/08/13 06:17:16;;;;;;;1.13;0.93;;;;;;;18.14;100.00;100727.81;4994721;28;20187;-82
2023/08/13 06:19:42;;;;;;;0.43;0.43;;;;;;;18.24;100.00;100732.03;4994843;28;20185;-85
2023/08/13 06:22:08;;;;;;;0.27;0.27;;;;;;;18.40;100.00;100734.78;4994712;28;20208;-82
2023/08/13 06:24:33;;;;;;;0.00;0.00;;;;;;;18.51;100.00;100737.81;4992760;28;20279;-82
2023/08/13 06:26:59;;;;;;;0.07;0.07;;;;;;;18.53;100.00;100738.28;4994760;28;20668;-83
2023/08/13 06:29:24;;;;;;;0.60;0.60;;;;;;;18.54;100.00;100737.91;4993214;28;20284;-85
2023/08/13 06:31:49;;;;;;;0.00;0.00;;;;;;;18.60;100.00;100735.66;4994447;28;20213;-82
2023/08/13 06:34:15;;;;;;;0.57;0.57;;;;;;;18.69;100.00;100744.63;4992358;28;20213;-83
2023/08/13 06:36:40;;;;;;;1.93;1.43;;;;;;;18.69;100.00;100747.41;4994665;28;20664;-83
2023/08/13 06:39:06;;;;;;;0.37;0.37;;;;;;;18.72;100.00;100741.94;4994189;28;20231;-83
2023/08/13 06:41:31;;;;;;;0.20;0.20;;;;;;;18.80;100.00;100745.66;4992946;28;20653;-83
2023/08/13 06:43:56;;;;;;;0.60;0.60;;;;;;;18.86;100.00;100748.97;4992794;28;20201;-82
2023/08/13 06:46:22;;;;;;;0.30;0.30;;;;;;;18.80;100.00;100753.97;4992312;28;20341;-82
2023/08/13 06:48:48;;;;;;;0.00;0.00;;;;;;;18.91;100.00;100748.69;4994044;28;20181;-84
2023/08/13 06:51:14;;;;;;;0.00;0.00;;;;;;;19.02;100.00;100753.31;4993860;28;20204;-83
2023/08/13 06:53:39;;;;;;;0.67;0.57;;;;;;;19.10;100.00;100742.41;4993951;28;20189;-85
2023/08/13 06:56:06;;;;;;;0.00;0.00;;;;;;;19.15;100.00;100748.47;4992488;28;20213;-83
2023/08/13 06:58:31;;;;;;;0.00;0.00;;;;;;;19.26;100.00;100740.38;4992161;28;20185;-83
2023/08/13 07:00:57;;;;;;;0.00;0.00;;;;;;;19.31;100.00;100740.91;4994026;28;20181;-85
2023/08/13 07:03:22;;;;;;;5.23;1.00;;;;;;;19.28;98.56;100730.53;4993692;28;20253;-84
2023/08/13 07:05:47;;;;;;;0.20;0.20;;;;;;;19.26;95.72;100738.41;4994897;28;20554;-84
2023/08/13 07:08:13;;;;;;;0.10;0.10;;;;;;;19.32;94.89;100741.69;4995391;28;20181;-84
2023/08/13 07:10:39;;;;;;;1.00;1.00;;;;;;;19.20;92.97;100733.50;4993470;28;20215;-83
2023/08/13 07:13:05;;;;;;;0.97;0.73;;;;;;;19.17;92.55;100728.69;4993664;28;20289;-84
2023/08/13 07:15:30;;;;;;;0.13;0.13;;;;;;;19.27;92.58;100742.78;4992711;28;20847;-84
2023/08/13 07:17:56;;;;;;;0.03;0.03;;;;;;;19.40;91.65;100731.59;4993166;28;20280;-83
2023/08/13 07:20:21;;;;;;;1.17;1.07;;;;;;;19.44;89.84;100738.00;4993358;28;20185;-84
2023/08/13 07:22:49;;;;;;;0.20;0.20;;;;;;;19.47;90.27;100738.06;4994658;28;20177;-84
2023/08/13 07:25:15;;;;;;;1.07;0.83;;;;;;;19.53;90.39;100742.16;4993462;28;20744;-83
2023/08/13 07:27:42;;;;;;;0.10;0.10;;;;;;;19.62;89.92;100733.63;4993964;28;20212;-83
2023/08/13 07:30:08;;;;;;;0.23;0.23;;;;;;;19.58;88.06;100730.81;4992887;28;20181;-83
2023/08/13 07:32:35;;;;;;;0.30;0.30;;;;;;;19.56;88.62;100735.09;4994162;28;20239;-83
2023/08/13 07:35:01;;;;;;;1.30;1.30;;;;;;;19.68;89.38;100734.16;4992295;28;20260;-85
2023/08/13 07:37:28;;;;;;;0.60;0.57;;;;;;;19.67;87.37;100727.78;4992559;28;20247;-83
2023/08/13 07:39:54;;;;;;;1.33;1.20;;;;;;;19.73;87.90;100736.63;4993873;28;20176;-83
2023/08/13 07:42:19;;;;;;;0.60;0.60;;;;;;;19.67;86.00;100715.91;4992416;28;20200;-83
2023/08/13 07:44:44;;;;;;;0.17;0.13;;;;;;;19.77;nan;100729.19;4991789;28;20648;-82
2023/08/13 07:47:10;;;;;;;0.73;0.40;;;;;;;19.84;85.84;100734.88;4992110;28;20200;-82
2023/08/13 07:49:36;;;;;;;0.20;0.20;;;;;;;19.91;84.00;100727.47;4992288;28;20189;-84
2023/08/13 07:52:01;;;;;;;0.30;0.30;;;;;;;19.87;83.18;100734.13;4993612;28;20188;-82
2023/08/13 07:54:28;;;;;;;0.27;0.27;;;;;;;19.93;82.42;100732.66;4991366;28;20581;-82
2023/08/13 07:56:53;;;;;;;0.10;0.10;;;;;;;19.97;81.20;100727.19;4990627;28;20255;-84
2023/08/13 07:59:19;;;;;;;1.27;1.27;;;;;;;20.03;79.96;100734.03;4991998;28;20185;-82
2023/08/13 08:01:44;;;;;;;0.20;0.20;;;;;;;20.16;80.58;100736.25;4993103;28;20213;-83
2023/08/13 08:04:10;;;;;;;0.37;0.37;;;;;;;20.23;79.15;100734.78;4992358;28;20696;-84
2023/08/13 08:06:35;;;;;;;1.10;1.00;;;;;;;20.28;78.38;100728.94;4991548;28;20191;-82
2023/08/13 08:09:01;;;;;;;1.00;0.77;;;;;;;20.30;79.32;100730.16;4993128;28;20196;-82
2023/08/13 08:11:27;;;;;;;0.10;0.10;;;;;;;20.28;79.79;100732.50;4991613;28;20192;-83
2023/08/13 08:13:52;;;;;;;0.30;0.30;;;;;;;20.21;80.96;100729.59;4992831;28;20210;-83
2023/08/13 08:16:17;;;;;;;0.20;0.20;;;;;;;20.19;81.63;100738.28;4992268;28;20581;-82
2023/08/13 08:18:43;;;;;;;0.87;0.83;;;;;;;20.16;80.44;100721.59;4993019;28;20217;-82
2023/08/13 08:21:08;;;;;;;0.30;0.20;;;;;;;20.22;79.85;100722.88;4992443;28;20185;-82
2023/08/13 08:23:34;;;;;;;0.70;0.70;;;;;;;20.46;79.68;100736.41;4992783;28;20692;-83
2023/08/13 08:25:59;;;;;;;0.20;0.20;;;;;;;20.64;77.50;100733.13;4992286;28;20264;-82
2023/08/13 08:28:25;;;;;;;0.40;0.30;;;;;;;20.66;75.92;100726.00;4992567;28;20193;-82
2023/08/13 08:30:51;;;;;;;0.73;0.73;;;;;;;20.54;75.54;100717.09;4989530;28;20204;-82
2023/08/13 08:33:16;;;;;;;6.23;1.17;;;;;;;20.46;75.77;100719.75;4991911;28;20263;-82
2023/08/13 08:35:41;;;;;;;4.63;1.03;;;;;;;20.37;76.08;100716.38;4991168;28;20197;-82
2023/08/13 08:38:07;;;;;;;5.07;0.40;;;;;;;20.31;76.72;100712.34;5012050;28;20204;-82
2023/08/13 08:40:32;;;;;;;0.40;0.40;;;;;;;20.40;76.60;100721.22;4990796;28;20204;-82
2023/08/13 08:42:57;;;;;;;1.30;1.03;;;;;;;20.34;76.45;100705.25;4991345;28;20213;-82
2023/08/13 08:45:24;;;;;;;0.07;0.07;;;;;;;20.46;77.60;100721.72;4991403;28;20259;-82
2023/08/13 08:47:50;;;;;;;0.47;0.47;;;;;;;20.64;78.10;100727.56;4990683;28;20523;-82
2023/08/13 08:50:17;;;;;;;0.20;0.10;;;;;;;20.72;76.38;100724.53;4991476;28;20205;-82
2023/08/13 08:52:42;;;;;;;0.07;0.07;;;;;;;20.77;75.64;100718.66;4991947;28;20203;-82
2023/08/13 08:55:10;;;;;;;0.87;0.50;;;;;;;20.92;75.37;100722.44;4991339;28;20688;-82
2023/08/13 08:57:35;;;;;;;0.00;0.00;;;;;;;20.95;74.33;100707.78;4990962;28;20602;-82
2023/08/13 09:00:02;;;;;;;6.07;0.87;;;;;;;20.98;74.23;100709.84;4992128;28;20177;-82
2023/08/13 09:02:27;;;;;;;0.87;0.27;;;;;;;21.12;73.78;100709.25;4991857;28;20733;-82
2023/08/13 09:04:52;;;;;;;0.10;0.10;;;;;;;21.34;74.01;100725.03;4990114;28;20284;-82
2023/08/13 09:07:18;;;;;;;0.93;0.23;;;;;;;21.36;71.54;100703.22;4991329;28;20177;-82
2023/08/13 09:09:48;;;;;;;4.53;0.50;;;;;;;21.50;71.04;100710.13;5004704;28;20276;-82
2023/08/13 09:12:14;;;;;;;0.57;0.57;;;;;;;21.61;71.50;100719.41;4990085;28;20526;-82
2023/08/13 09:14:40;;;;;;;0.47;0.47;;;;;;;21.54;71.30;100708.19;4989712;28;20705;-82
2023/08/13 09:17:11;;;;;;;2.27;0.37;;;;;;;21.47;70.32;100703.34;4989962;28;20261;-82
2023/08/13 09:19:36;;;;;;;0.60;0.60;;;;;;;21.34;68.62;100688.91;4991383;28;20549;-83
2023/08/13 09:22:03;;;;;;;1.37;1.27;;;;;;;21.39;69.70;100691.34;5005543;28;20205;-81
2023/08/13 09:24:33;;;;;;;0.97;0.87;;;;;;;21.51;70.42;100703.41;4985903;28;20923;-84
2023/08/13 09:26:59;;;;;;;2.80;0.77;;;;;;;21.45;68.74;100691.03;4990636;28;20623;-84
2023/08/13 09:29:27;;;;;;;0.77;0.73;;;;;;;21.58;70.75;100711.84;5007326;28;20207;-83
2023/08/13 09:31:52;;;;;;;0.93;0.80;;;;;;;21.66;71.99;100719.06;4991421;28;20189;-83
2023/08/13 09:34:20;;;;;;;0.00;0.00;;;;;;;21.71;71.20;100712.38;4991618;28;20212;-82
2023/08/13 09:36:46;;;;;;;3.10;1.87;;;;;;;21.61;70.07;100691.59;4991312;28;20191;-84
2023/08/13 09:39:12;;;;;;;0.47;0.47;;;;;;;21.44;70.13;100681.88;4994615;28;20624;-81
2023/08/13 09:41:37;;;;;;;0.07;0.07;;;;;;;21.42;71.10;100691.78;4991273;28;20185;-83
2023/08/13 09:44:09;;;;;;;0.53;0.50;;;;;;;21.49;70.81;100689.88;4991290;28;20571;-83
2023/08/13 09:46:35;;;;;;;0.57;0.57;;;;;;;21.48;70.12;100684.69;4984310;28;20326;-82
2023/08/13 09:49:03;;;;;;;0.60;0.60;;;;;;;21.52;69.85;100677.19;4999947;28;20591;-85
2023/08/13 09:51:31;;;;;;;0.50;0.40;;;;;;;21.56;70.29;100689.97;5001734;28;20216;-86
2023/08/13 09:54:08;;;;;;;1.83;1.50;;;;;;;21.41;70.23;100679.88;5009198;28;20209;-84
2023/08/13 09:56:36;;;;;;;0.63;0.63;;;;;;;21.34;70.39;100682.53;4992627;28;20201;-82
2023/08/13 09:59:02;;;;;;;0.43;0.43;;;;;;;21.40;71.40;100692.13;5000659;28;20184;-84
2023/08/13 10:01:28;;;;;;;5.30;2.07;;;;;;;21.39;71.01;100680.22;4990873;28;20181;-84
2023/08/13 10:03:54;;;;;;;0.83;0.73;;;;;;;21.54;70.14;100681.19;4990525;28;20225;-83
2023/08/13 10:06:21;;;;;;;0.50;0.50;;;;;;;21.77;70.44;100686.63;4991100;28;20215;-83
2023/08/13 10:08:47;;;;;;;0.30;0.30;;;;;;;21.90;69.89;100684.38;5009627;28;20883;-81
2023/08/13 10:11:13;;;;;;;0.83;0.63;;;;;;;22.05;69.32;100682.50;4991285;28;20188;-81
2023/08/13 10:13:39;;;;;;;2.67;0.50;;;;;;;22.02;69.14;100672.16;4991042;28;20240;-83
2023/08/13 10:16:06;;;;;;;0.20;0.20;;;;;;;22.05;67.32;100669.44;4989304;28;20214;-84
2023/08/13 10:18:33;;;;;;;0.20;0.10;;;;;;;22.11;68.03;100672.66;4990463;28;20185;-84
2023/08/13 10:20:58;;;;;;;0.00;0.00;;;;;;;22.21;68.68;100683.09;4991798;28;20232;-79
2023/08/13 10:23:26;;;;;;;0.47;0.47;;;;;;;22.34;70.13;100691.94;4990038;28;20199;-83
2023/08/13 10:25:53;;;;;;;7.27;1.73;;;;;;;22.24;67.37;100660.84;4989565;28;20181;-84
2023/08/13 10:28:28;;;;;;;3.63;1.13;;;;;;;22.20;68.65;100673.13;4989726;28;20189;-82
2023/08/13 10:31:20;;;;;;;0.00;0.00;;;;;;;22.10;68.22;100668.28;4991583;28;20209;-82
2023/08/13 10:33:46;;;;;;;0.00;0.00;;;;;;;22.15;67.99;100663.16;4990037;28;20678;-81
2023/08/13 10:36:11;;;;;;;5.57;1.87;;;;;;;22.19;68.74;100679.88;4993086;28;20214;-82
2023/08/13 10:38:39;;;;;;;0.00;0.00;;;;;;;22.31;68.63;100678.81;4993369;28;20698;-82
2023/08/13 10:41:06;;;;;;;0.70;0.40;;;;;;;22.21;68.30;100666.38;4994275;28;20181;-81
2023/08/13 10:43:33;;;;;;;2.67;2.50;;;;;;;22.17;69.87;100671.13;4992853;28;20582;-81
2023/08/13 10:45:58;;;;;;;0.40;0.33;;;;;;;22.25;70.62;100686.69;4992414;28;20723;-82
2023/08/13 10:48:30;;;;;;;0.93;0.80;;;;;;;22.22;68.58;100660.44;4992248;28;20220;-82
2023/08/13 10:50:57;;;;;;;0.30;0.30;;;;;;;22.34;68.40;100658.53;4993957;28;20666;-82
2023/08/13 10:53:26;;;;;;;3.27;3.07;;;;;;;22.55;68.43;100669.81;4993567;28;20193;-82
2023/08/13 10:55:53;;;;;;;0.73;0.70;;;;;;;22.51;67.58;100655.88;4992022;28;20209;-83
2023/08/13 10:58:29;;;;;;;0.97;0.97;;;;;;;22.61;67.42;100659.94;4993571;28;20189;-81
2023/08/13 11:00:59;;;;;;;4.10;3.30;;;;;;;22.63;68.73;100662.31;4992641;28;20274;-82
2023/08/13 11:03:31;;;;;;;4.03;0.77;;;;;;;22.44;68.14;100655.84;4992669;28;20205;-81
2023/08/13 11:05:57;;;;;;;9.27;1.53;;;;;;;22.44;69.39;100661.41;4993689;28;20174;-82
2023/08/13 11:08:24;;;;;;;0.20;0.20;;;;;;;22.44;68.40;100646.69;4994019;28;20712;-82
2023/08/13 11:10:51;;;;;;;0.20;0.20;;;;;;;22.50;67.83;100634.78;4993938;28;20193;-81
2023/08/13 11:13:18;;;;;;;0.30;0.10;;;;;;;22.55;67.75;100633.59;4993584;28;20198;-83
2023/08/13 11:15:51;;;;;;;0.07;0.07;;;;;;;22.79;67.62;100644.13;4992989;28;20274;-81